sensor_id;sensor_type;location;lat;lon;timestamp;pressure;altitude;pressure_sealevel;temperature;humidity
46638;BME280;32365;46.938;7.390;2023-03-25T06:16:48;95125.69;;;6.27;81.28
46638;BME280;32365;46.938;7.390;2023-03-25T06:19:14;95134.56;;;6.31;81.79
46638;BME280;32365;46.938;7.390;2023-03-25T06:21:42;95136.97;;;6.26;81.20
46638;BME280;32365;46.938;7.390;2023-03-25T06:24:13;95139.06;;;6.42;81.34
46638;BME280;32365;46.938;7.390;2023-03-25T06:26:40;95124.38;;;6.50;81.33
46638;BME280;32365;46.938;7.390;2023-03-25T06:29:06;95121.41;;;6.46;80.78
46638;BME280;32365;46.938;7.390;2023-03-25T06:31:33;95123.03;;;6.40;81.05
46638;BME280;32365;46.938;7.390;2023-03-25T06:34:01;95118.81;;;6.53;80.83
46638;BME280;32365;46.938;7.390;2023-03-25T06:36:28;95128.28;;;6.52;80.88
46638;BME280;32365;46.938;7.390;2023-03-25T06:38:55;95119.53;;;6.60;80.97
46638;BME280;32365;46.938;7.390;2023-03-25T06:41:22;95125.09;;;6.57;80.71
46638;BME280;32365;46.938;7.390;2023-03-25T06:43:49;95130.09;;;6.52;81.06
46638;BME280;32365;46.938;7.390;2023-03-25T06:46:16;95134.78;;;6.61;80.21
46638;BME280;32365;46.938;7.390;2023-03-25T06:48:43;95126.25;;;6.61;80.53
46638;BME280;32365;46.938;7.390;2023-03-25T06:51:11;95135.25;;;6.77;80.44
46638;BME280;32365;46.938;7.390;2023-03-25T06:53:37;95122.38;;;6.77;80.91
46638;BME280;32365;46.938;7.390;2023-03-25T06:56:05;95127.44;;;6.90;79.15
46638;BME280;32365;46.938;7.390;2023-03-25T06:58:31;95141.41;;;7.01;79.18
46638;BME280;32365;46.938;7.390;2023-03-25T07:00:59;95141.34;;;6.83;80.55
46638;BME280;32365;46.938;7.390;2023-03-25T07:03:30;95139.72;;;6.63;82.85
46638;BME280;32365;46.938;7.390;2023-03-25T07:05:56;95143.91;;;6.57;85.34
46638;BME280;32365;46.938;7.390;2023-03-25T07:08:25;95150.25;;;6.55;83.69
46638;BME280;32365;46.938;7.390;2023-03-25T07:10:51;95151.88;;;6.49;83.68
46638;BME280;32365;46.938;7.390;2023-03-25T07:13:18;95144.31;;;6.54;82.21
46638;BME280;32365;46.938;7.390;2023-03-25T07:15:45;95133.41;;;6.59;82.54
46638;BME280;32365;46.938;7.390;2023-03-25T07:18:11;95133.56;;;6.64;83.22
46638;BME280;32365;46.938;7.390;2023-03-25T07:20:38;95131.78;;;6.65;82.27
46638;BME280;32365;46.938;7.390;2023-03-25T07:23:04;95120.03;;;6.75;82.53
46638;BME280;32365;46.938;7.390;2023-03-25T07:25:32;95130.81;;;6.91;80.43
46638;BME280;32365;46.938;7.390;2023-03-25T07:27:59;95122.06;;;6.92;79.79
46638;BME280;32365;46.938;7.390;2023-03-25T07:30:25;95131.53;;;6.98;79.08
46638;BME280;32365;46.938;7.390;2023-03-25T07:32:52;95135.28;;;7.02;78.74
46638;BME280;32365;46.938;7.390;2023-03-25T07:35:18;95146.75;;;7.00;79.52
46638;BME280;32365;46.938;7.390;2023-03-25T07:37:45;95140.78;;;7.06;79.86
46638;BME280;32365;46.938;7.390;2023-03-25T07:40:12;95143.81;;;6.96;78.17
46638;BME280;32365;46.938;7.390;2023-03-25T07:42:40;95132.22;;;6.87;81.01
46638;BME280;32365;46.938;7.390;2023-03-25T07:45:07;95131.09;;;6.76;82.15
46638;BME280;32365;46.938;7.390;2023-03-25T07:47:33;95128.84;;;6.86;83.04
46638;BME280;32365;46.938;7.390;2023-03-25T07:50:00;95129.16;;;6.71;81.74
46638;BME280;32365;46.938;7.390;2023-03-25T07:52:27;95120.34;;;6.60;81.94
46638;BME280;32365;46.938;7.390;2023-03-25T07:54:53;95116.84;;;6.80;84.54
46638;BME280;32365;46.938;7.390;2023-03-25T07:57:20;95113.88;;;7.02;83.72
46638;BME280;32365;46.938;7.390;2023-03-25T07:59:48;95125.53;;;7.30;82.72
46638;BME280;32365;46.938;7.390;2023-03-25T08:02:14;95126.19;;;7.44;82.08
46638;BME280;32365;46.938;7.390;2023-03-25T08:04:41;95136.50;;;7.62;81.37
46638;BME280;32365;46.938;7.390;2023-03-25T08:07:07;95133.06;;;7.68;79.09
46638;BME280;32365;46.938;7.390;2023-03-25T08:09:34;95140.78;;;7.87;79.23
46638;BME280;32365;46.938;7.390;2023-03-25T08:12:00;95142.16;;;7.90;76.99
46638;BME280;32365;46.938;7.390;2023-03-25T08:14:27;95127.06;;;7.75;76.77
46638;BME280;32365;46.938;7.390;2023-03-25T08:16:55;95140.50;;;7.58;76.98
46638;BME280;32365;46.938;7.390;2023-03-25T08:19:22;95144.88;;;7.58;76.66
46638;BME280;32365;46.938;7.390;2023-03-25T08:21:48;95139.56;;;7.52;76.96
46638;BME280;32365;46.938;7.390;2023-03-25T08:24:15;95147.66;;;7.37;78.89
46638;BME280;32365;46.938;7.390;2023-03-25T08:26:41;95150.28;;;7.31;79.81
46638;BME280;32365;46.938;7.390;2023-03-25T08:29:08;95136.56;;;7.12;81.08
46638;BME280;32365;46.938;7.390;2023-03-25T08:31:38;95142.81;;;6.97;82.70
46638;BME280;32365;46.938;7.390;2023-03-25T08:34:06;95146.13;;;6.79;85.09
46638;BME280;32365;46.938;7.390;2023-03-25T08:36:32;95144.53;;;6.53;85.37
46638;BME280;32365;46.938;7.390;2023-03-25T08:39:03;95156.25;;;6.42;88.86
46638;BME280;32365;46.938;7.390;2023-03-25T08:41:33;95159.69;;;6.29;90.31
46638;BME280;32365;46.938;7.390;2023-03-25T08:44:02;95161.91;;;6.19;90.13
46638;BME280;32365;46.938;7.390;2023-03-25T08:46:28;95161.47;;;6.28;91.99
46638;BME280;32365;46.938;7.390;2023-03-25T08:48:55;95156.75;;;6.25;91.90
46638;BME280;32365;46.938;7.390;2023-03-25T08:51:23;95156.28;;;6.35;91.97
46638;BME280;32365;46.938;7.390;2023-03-25T08:53:49;95159.25;;;6.32;91.23
46638;BME280;32365;46.938;7.390;2023-03-25T08:56:16;95159.47;;;6.30;91.08
46638;BME280;32365;46.938;7.390;2023-03-25T08:58:42;95158.44;;;6.38;92.63
46638;BME280;32365;46.938;7.390;2023-03-25T09:01:09;95166.19;;;6.31;93.42
46638;BME280;32365;46.938;7.390;2023-03-25T09:03:36;95159.88;;;6.27;92.82
46638;BME280;32365;46.938;7.390;2023-03-25T09:06:06;95162.06;;;6.30;94.20
46638;BME280;32365;46.938;7.390;2023-03-25T09:08:34;95165.03;;;6.27;94.77
46638;BME280;32365;46.938;7.390;2023-03-25T09:11:02;95158.31;;;6.26;95.29
46638;BME280;32365;46.938;7.390;2023-03-25T09:13:29;95155.69;;;6.33;95.48
46638;BME280;32365;46.938;7.390;2023-03-25T09:15:56;95151.31;;;6.40;94.26
46638;BME280;32365;46.938;7.390;2023-03-25T09:18:23;95145.94;;;6.49;95.50
46638;BME280;32365;46.938;7.390;2023-03-25T09:20:49;95161.84;;;6.32;95.31
46638;BME280;32365;46.938;7.390;2023-03-25T09:23:16;95171.38;;;6.25;95.79
46638;BME280;32365;46.938;7.390;2023-03-25T09:25:44;95184.09;;;6.13;97.20
46638;BME280;32365;46.938;7.390;2023-03-25T09:28:12;95189.38;;;6.25;98.16
46638;BME280;32365;46.938;7.390;2023-03-25T09:30:38;95193.50;;;6.32;99.33
46638;BME280;32365;46.938;7.390;2023-03-25T09:33:05;95196.63;;;6.41;99.02
46638;BME280;32365;46.938;7.390;2023-03-25T09:35:31;95195.00;;;6.47;98.20
46638;BME280;32365;46.938;7.390;2023-03-25T09:37:58;95202.09;;;6.52;98.89
46638;BME280;32365;46.938;7.390;2023-03-25T09:40:25;95195.41;;;6.76;97.45
46638;BME280;32365;46.938;7.390;2023-03-25T09:43:02;95193.31;;;7.49;97.61
46638;BME280;32365;46.938;7.390;2023-03-25T09:45:35;95187.44;;;7.79;93.30
46638;BME280;32365;46.938;7.390;2023-03-25T09:48:17;95185.91;;;7.96;89.31
46638;BME280;32365;46.938;7.390;2023-03-25T09:50:48;95190.59;;;7.81;90.71
46638;BME280;32365;46.938;7.390;2023-03-25T09:53:24;95197.13;;;7.65;91.09
46638;BME280;32365;46.938;7.390;2023-03-25T09:55:54;95204.03;;;7.46;93.19
46638;BME280;32365;46.938;7.390;2023-03-25T09:58:27;95203.25;;;7.45;93.35
46638;BME280;32365;46.938;7.390;2023-03-25T10:00:59;95207.00;;;7.68;93.10
46638;BME280;32365;46.938;7.390;2023-03-25T10:03:31;95196.84;;;7.92;92.85
46638;BME280;32365;46.938;7.390;2023-03-25T10:06:11;95194.91;;;7.87;92.57
46638;BME280;32365;46.938;7.390;2023-03-25T10:08:49;95194.19;;;7.98;90.42
46638;BME280;32365;46.938;7.390;2023-03-25T10:11:24;95196.91;;;8.04;91.21
46638;BME280;32365;46.938;7.390;2023-03-25T10:13:59;95200.63;;;8.08;90.68
46638;BME280;32365;46.938;7.390;2023-03-25T10:16:34;95198.84;;;8.08;89.08
46638;BME280;32365;46.938;7.390;2023-03-25T10:19:14;95190.97;;;7.84;87.96
46638;BME280;32365;46.938;7.390;2023-03-25T10:21:50;95200.78;;;7.76;87.99
46638;BME280;32365;46.938;7.390;2023-03-25T10:24:21;95198.28;;;7.88;87.12
46638;BME280;32365;46.938;7.390;2023-03-25T10:26:53;95197.28;;;7.89;86.51
46638;BME280;32365;46.938;7.390;2023-03-25T10:29:26;95198.06;;;7.89;88.38
46638;BME280;32365;46.938;7.390;2023-03-25T10:31:59;95197.34;;;7.82;85.24
46638;BME280;32365;46.938;7.390;2023-03-25T10:34:31;95211.44;;;7.79;87.18
46638;BME280;32365;46.938;7.390;2023-03-25T10:37:02;95219.03;;;7.74;87.26
46638;BME280;32365;46.938;7.390;2023-03-25T10:39:32;95201.22;;;7.73;85.72
46638;BME280;32365;46.938;7.390;2023-03-25T10:42:13;95228.34;;;7.75;85.32
46638;BME280;32365;46.938;7.390;2023-03-25T10:44:44;95237.19;;;7.61;83.91
46638;BME280;32365;46.938;7.390;2023-03-25T10:47:15;95242.94;;;7.37;82.71
46638;BME280;32365;46.938;7.390;2023-03-25T10:49:43;95238.97;;;7.35;84.55
46638;BME280;32365;46.938;7.390;2023-03-25T10:52:12;95240.88;;;7.21;85.78
46638;BME280;32365;46.938;7.390;2023-03-25T10:54:41;95240.22;;;7.26;86.04
46638;BME280;32365;46.938;7.390;2023-03-25T10:57:11;95235.09;;;7.26;86.61
46638;BME280;32365;46.938;7.390;2023-03-25T10:59:55;95232.78;;;7.17;84.67
46638;BME280;32365;46.938;7.390;2023-03-25T11:02:25;95248.19;;;7.24;85.11
46638;BME280;32365;46.938;7.390;2023-03-25T11:04:55;95245.13;;;7.34;85.18
46638;BME280;32365;46.938;7.390;2023-03-25T11:07:26;95249.03;;;7.43;85.08
46638;BME280;32365;46.938;7.390;2023-03-25T11:10:07;95234.72;;;7.73;85.88
46638;BME280;32365;46.938;7.390;2023-03-25T11:12:34;95235.09;;;7.51;85.15
46638;BME280;32365;46.938;7.390;2023-03-25T11:15:04;95237.16;;;7.42;87.15
46638;BME280;32365;46.938;7.390;2023-03-25T11:17:32;95239.97;;;7.34;87.32
46638;BME280;32365;46.938;7.390;2023-03-25T11:20:03;95244.72;;;7.37;86.49
46638;BME280;32365;46.938;7.390;2023-03-25T11:22:36;95248.66;;;7.39;86.92
46638;BME280;32365;46.938;7.390;2023-03-25T11:25:06;95252.16;;;7.20;87.60
46638;BME280;32365;46.938;7.390;2023-03-25T11:27:39;95232.91;;;6.97;88.45
46638;BME280;32365;46.938;7.390;2023-03-25T11:30:16;95235.16;;;6.87;88.74
46638;BME280;32365;46.938;7.390;2023-03-25T11:32:43;95235.97;;;6.81;89.74
46638;BME280;32365;46.938;7.390;2023-03-25T11:35:15;95248.16;;;6.92;89.64
46638;BME280;32365;46.938;7.390;2023-03-25T11:37:44;95236.38;;;6.84;88.29
46638;BME280;32365;46.938;7.390;2023-03-25T11:40:13;95252.63;;;6.78;88.55
46638;BME280;32365;46.938;7.390;2023-03-25T11:42:42;95256.41;;;6.75;88.11
46638;BME280;32365;46.938;7.390;2023-03-25T11:45:20;95255.75;;;6.87;89.18
46638;BME280;32365;46.938;7.390;2023-03-25T11:47:47;95260.91;;;6.80;89.80
46638;BME280;32365;46.938;7.390;2023-03-25T11:50:19;95267.25;;;6.84;90.39
46638;BME280;32365;46.938;7.390;2023-03-25T11:52:47;95274.38;;;6.82;91.28
46638;BME280;32365;46.938;7.390;2023-03-25T11:55:18;95257.84;;;6.58;91.16
46638;BME280;32365;46.938;7.390;2023-03-25T11:57:46;95249.31;;;6.64;91.43
46638;BME280;32365;46.938;7.390;2023-03-25T12:00:26;95243.88;;;6.86;89.72
46638;BME280;32365;46.938;7.390;2023-03-25T12:03:00;95249.38;;;6.89;90.93
46638;BME280;32365;46.938;7.390;2023-03-25T12:05:28;95248.94;;;6.99;90.19
46638;BME280;32365;46.938;7.390;2023-03-25T12:08:03;95247.66;;;7.84;87.99
46638;BME280;32365;46.938;7.390;2023-03-25T12:10:41;95236.56;;;9.19;79.35
46638;BME280;32365;46.938;7.390;2023-03-25T12:13:17;95229.97;;;11.39;73.90
46638;BME280;32365;46.938;7.390;2023-03-25T12:15:54;95228.22;;;11.62;69.79
46638;BME280;32365;46.938;7.390;2023-03-25T12:18:34;95227.28;;;10.71;72.99
46638;BME280;32365;46.938;7.390;2023-03-25T12:21:11;95229.91;;;10.59;74.38
46638;BME280;32365;46.938;7.390;2023-03-25T12:23:46;95235.13;;;12.80;64.01
46638;BME280;32365;46.938;7.390;2023-03-25T12:26:18;95234.19;;;13.51;60.73
46638;BME280;32365;46.938;7.390;2023-03-25T12:29:01;95228.94;;;13.83;60.16
46638;BME280;32365;46.938;7.390;2023-03-25T12:31:45;95223.28;;;14.02;56.69
46638;BME280;32365;46.938;7.390;2023-03-25T12:34:22;95220.50;;;13.66;58.09
46638;BME280;32365;46.938;7.390;2023-03-25T12:36:57;95216.81;;;14.05;59.85
46638;BME280;32365;46.938;7.390;2023-03-25T12:39:44;95221.03;;;15.11;58.21
46638;BME280;32365;46.938;7.390;2023-03-25T12:42:29;95223.94;;;16.42;55.09
46638;BME280;32365;46.938;7.390;2023-03-25T12:45:12;95218.94;;;15.49;52.38
46638;BME280;32365;46.938;7.390;2023-03-25T12:47:47;95213.63;;;16.16;52.15
46638;BME280;32365;46.938;7.390;2023-03-25T12:50:22;95208.53;;;14.13;56.03
46638;BME280;32365;46.938;7.390;2023-03-25T12:52:55;95208.41;;;12.35;59.30
46638;BME280;32365;46.938;7.390;2023-03-25T12:55:43;95213.56;;;11.90;64.77
46638;BME280;32365;46.938;7.390;2023-03-25T12:58:30;95204.44;;;11.48;65.07
46638;BME280;32365;46.938;7.390;2023-03-25T13:01:06;95198.44;;;10.80;68.34
46638;BME280;32365;46.938;7.390;2023-03-25T13:06:34;95187.16;;;10.86;69.69
46638;BME280;32365;46.938;7.390;2023-03-25T13:09:09;95182.75;;;10.86;70.77
46638;BME280;32365;46.938;7.390;2023-03-25T13:11:40;95183.56;;;11.04;68.31
46638;BME280;32365;46.938;7.390;2023-03-25T13:14:14;95171.22;;;11.11;68.94
46638;BME280;32365;46.938;7.390;2023-03-25T13:16:43;95167.69;;;11.34;68.03
46638;BME280;32365;46.938;7.390;2023-03-25T13:19:14;95169.28;;;11.18;68.18
46638;BME280;32365;46.938;7.390;2023-03-25T13:21:44;95160.56;;;10.90;68.27
46638;BME280;32365;46.938;7.390;2023-03-25T13:24:17;95161.97;;;10.52;72.88
46638;BME280;32365;46.938;7.390;2023-03-25T13:26:46;95167.13;;;11.89;67.95
46638;BME280;32365;46.938;7.390;2023-03-25T13:29:23;95181.13;;;13.14;62.25
46638;BME280;32365;46.938;7.390;2023-03-25T13:31:52;95176.28;;;13.66;59.32
46638;BME280;32365;46.938;7.390;2023-03-25T13:34:26;95183.47;;;14.86;56.22
46638;BME280;32365;46.938;7.390;2023-03-25T13:37:04;95188.97;;;15.20;53.02
46638;BME280;32365;46.938;7.390;2023-03-25T13:39:43;95180.78;;;14.50;53.31
46638;BME280;32365;46.938;7.390;2023-03-25T13:42:15;95175.63;;;13.91;56.01
46638;BME280;32365;46.938;7.390;2023-03-25T13:44:44;95172.34;;;14.16;52.40
46638;BME280;32365;46.938;7.390;2023-03-25T13:47:16;95170.03;;;12.64;57.12
46638;BME280;32365;46.938;7.390;2023-03-25T13:49:48;95165.06;;;13.22;56.70
46638;BME280;32365;46.938;7.390;2023-03-25T13:52:16;95157.53;;;12.88;56.42
46638;BME280;32365;46.938;7.390;2023-03-25T13:54:45;95165.19;;;12.23;59.06
46638;BME280;32365;46.938;7.390;2023-03-25T13:57:30;95164.19;;;11.63;61.94
46638;BME280;32365;46.938;7.390;2023-03-25T14:03:22;95148.16;;;11.27;63.65
46638;BME280;32365;46.938;7.390;2023-03-25T14:06:17;95153.53;;;11.25;62.63
46638;BME280;32365;46.938;7.390;2023-03-25T14:09:12;95151.66;;;11.03;61.40
46638;BME280;32365;46.938;7.390;2023-03-25T14:11:45;95142.56;;;11.18;61.85
46638;BME280;32365;46.938;7.390;2023-03-25T14:14:17;95148.38;;;12.53;57.56
46638;BME280;32365;46.938;7.390;2023-03-25T14:16:49;95136.72;;;12.56;56.74
46638;BME280;32365;46.938;7.390;2023-03-25T14:19:28;95139.97;;;12.19;58.44
46638;BME280;32365;46.938;7.390;2023-03-25T14:21:57;95131.84;;;11.48;59.40
46638;BME280;32365;46.938;7.390;2023-03-25T14:24:27;95129.22;;;10.75;61.08
46638;BME280;32365;46.938;7.390;2023-03-25T14:26:58;95158.31;;;10.36;62.76
46638;BME280;32365;46.938;7.390;2023-03-25T14:29:33;95170.66;;;10.05;62.90
46638;BME280;32365;46.938;7.390;2023-03-25T14:32:06;95170.38;;;9.78;65.07
46638;BME280;32365;46.938;7.390;2023-03-25T14:34:50;95169.28;;;9.74;66.74
46638;BME280;32365;46.938;7.390;2023-03-25T14:37:28;95161.94;;;9.82;65.99
46638;BME280;32365;46.938;7.390;2023-03-25T14:39:56;95149.75;;;10.07;66.42
46638;BME280;32365;46.938;7.390;2023-03-25T14:42:40;95149.78;;;10.99;63.68
46638;BME280;32365;46.938;7.390;2023-03-25T14:45:36;95142.34;;;12.75;56.33
46638;BME280;32365;46.938;7.390;2023-03-25T14:48:22;95131.44;;;12.45;56.14
46638;BME280;32365;46.938;7.390;2023-03-25T14:51:05;95131.16;;;11.97;57.08
46638;BME280;32365;46.938;7.390;2023-03-25T14:53:35;95129.16;;;11.04;59.52
46638;BME280;32365;46.938;7.390;2023-03-25T14:56:05;95122.47;;;10.74;60.40
46638;BME280;32365;46.938;7.390;2023-03-25T14:58:36;95137.16;;;10.85;60.81
46638;BME280;32365;46.938;7.390;2023-03-25T15:01:05;95124.50;;;10.89;61.21
46638;BME280;32365;46.938;7.390;2023-03-25T15:03:36;95135.25;;;10.81;60.76
46638;BME280;32365;46.938;7.390;2023-03-25T15:06:04;95138.81;;;10.91;60.24
46638;BME280;32365;46.938;7.390;2023-03-25T15:08:36;95122.63;;;10.84;60.50
46638;BME280;32365;46.938;7.390;2023-03-25T15:11:07;95127.50;;;10.98;60.81
46638;BME280;32365;46.938;7.390;2023-03-25T15:13:34;95122.25;;;10.92;58.76
46638;BME280;32365;46.938;7.390;2023-03-25T15:16:16;95113.63;;;10.87;58.66
46638;BME280;32365;46.938;7.390;2023-03-25T15:19:05;95127.97;;;11.12;58.63
46638;BME280;32365;46.938;7.390;2023-03-25T15:24:24;95116.84;;;10.94;59.21
46638;BME280;32365;46.938;7.390;2023-03-25T15:26:53;95113.50;;;11.94;57.04
46638;BME280;32365;46.938;7.390;2023-03-25T15:29:38;95120.06;;;13.17;50.03
46638;BME280;32365;46.938;7.390;2023-03-25T15:32:25;95120.91;;;13.76;48.15
46638;BME280;32365;46.938;7.390;2023-03-25T15:38:17;95127.09;;;12.29;52.50
46638;BME280;32365;46.938;7.390;2023-03-25T15:41:01;95132.91;;;11.69;54.46
46638;BME280;32365;46.938;7.390;2023-03-25T15:43:45;95129.78;;;11.11;54.70
46638;BME280;32365;46.938;7.390;2023-03-25T15:46:32;95124.59;;;10.94;54.75
46638;BME280;32365;46.938;7.390;2023-03-25T15:52:22;95125.75;;;10.52;56.27
46638;BME280;32365;46.938;7.390;2023-03-25T15:54:53;95123.56;;;10.61;56.21
46638;BME280;32365;46.938;7.390;2023-03-25T15:57:23;95128.47;;;10.45;57.42
46638;BME280;32365;46.938;7.390;2023-03-25T15:59:58;95130.31;;;10.33;58.08
46638;BME280;32365;46.938;7.390;2023-03-25T16:02:32;95131.59;;;10.19;58.62
46638;BME280;32365;46.938;7.390;2023-03-25T16:05:02;95144.13;;;10.10;59.96
46638;BME280;32365;46.938;7.390;2023-03-25T16:07:28;95130.38;;;10.21;59.25
46638;BME280;32365;46.938;7.390;2023-03-25T16:10:03;95134.88;;;10.14;59.39
46638;BME280;32365;46.938;7.390;2023-03-25T16:12:32;95145.91;;;10.09;59.82
46638;BME280;32365;46.938;7.390;2023-03-25T16:14:58;95135.00;;;10.07;59.36
46638;BME280;32365;46.938;7.390;2023-03-25T16:17:30;95133.25;;;9.96;59.50
46638;BME280;32365;46.938;7.390;2023-03-25T16:19:59;95130.88;;;9.94;59.41
46638;BME280;32365;46.938;7.390;2023-03-25T16:22:31;95128.50;;;9.93;60.47
46638;BME280;32365;46.938;7.390;2023-03-25T16:25:00;95125.28;;;9.97;61.15
46638;BME280;32365;46.938;7.390;2023-03-25T16:27:30;95134.13;;;10.01;60.88
46638;BME280;32365;46.938;7.390;2023-03-25T16:29:58;95135.81;;;10.08;61.38
46638;BME280;32365;46.938;7.390;2023-03-25T16:32:30;95135.25;;;10.06;61.15
46638;BME280;32365;46.938;7.390;2023-03-25T16:34:57;95125.47;;;9.96;61.26
46638;BME280;32365;46.938;7.390;2023-03-25T16:37:24;95128.88;;;9.96;60.75
46638;BME280;32365;46.938;7.390;2023-03-25T16:39:53;95131.78;;;9.88;60.89
46638;BME280;32365;46.938;7.390;2023-03-25T16:42:25;95129.44;;;9.86;60.76
46638;BME280;32365;46.938;7.390;2023-03-25T16:44:52;95114.84;;;9.80;60.95
46638;BME280;32365;46.938;7.390;2023-03-25T16:47:21;95111.78;;;9.83;61.97
46638;BME280;32365;46.938;7.390;2023-03-25T16:49:49;95117.00;;;9.72;61.54
46638;BME280;32365;46.938;7.390;2023-03-25T16:52:21;95124.44;;;9.68;60.84
46638;BME280;32365;46.938;7.390;2023-03-25T16:57:32;95119.97;;;9.39;60.74
46638;BME280;32365;46.938;7.390;2023-03-25T17:00:04;95105.47;;;9.38;60.69
46638;BME280;32365;46.938;7.390;2023-03-25T17:02:43;95104.03;;;9.31;61.45
46638;BME280;32365;46.938;7.390;2023-03-25T17:05:14;95104.59;;;9.21;61.84
46638;BME280;32365;46.938;7.390;2023-03-25T17:07:42;95106.16;;;9.22;61.61
46638;BME280;32365;46.938;7.390;2023-03-25T17:10:17;95110.75;;;9.20;61.39
46638;BME280;32365;46.938;7.390;2023-03-25T17:12:45;95107.16;;;9.09;62.21
46638;BME280;32365;46.938;7.390;2023-03-25T17:15:18;95104.94;;;9.13;62.04
46638;BME280;32365;46.938;7.390;2023-03-25T17:17:49;95108.97;;;9.08;63.28
46638;BME280;32365;46.938;7.390;2023-03-25T17:20:19;95104.56;;;9.09;63.05
46638;BME280;32365;46.938;7.390;2023-03-25T17:22:58;95110.75;;;9.20;62.67
46638;BME280;32365;46.938;7.390;2023-03-25T17:25:27;95104.13;;;9.12;63.22
46638;BME280;32365;46.938;7.390;2023-03-25T17:28:03;95118.06;;;8.99;63.72
46638;BME280;32365;46.938;7.390;2023-03-25T17:30:38;95124.56;;;9.02;64.25
46638;BME280;32365;46.938;7.390;2023-03-25T17:33:11;95120.41;;;9.01;64.55
46638;BME280;32365;46.938;7.390;2023-03-25T17:35:40;95117.59;;;9.02;64.87
46638;BME280;32365;46.938;7.390;2023-03-25T17:38:13;95111.44;;;8.91;65.66
46638;BME280;32365;46.938;7.390;2023-03-25T17:40:42;95108.84;;;8.91;65.60
46638;BME280;32365;46.938;7.390;2023-03-25T17:43:16;95106.69;;;8.88;65.76
46638;BME280;32365;46.938;7.390;2023-03-25T17:45:43;95114.22;;;8.78;65.88
46638;BME280;32365;46.938;7.390;2023-03-25T17:48:13;95103.75;;;8.73;66.51
46638;BME280;32365;46.938;7.390;2023-03-25T17:50:48;95111.06;;;8.76;66.27
46638;BME280;32365;46.938;7.390;2023-03-25T17:53:17;95114.56;;;8.70;66.89
46638;BME280;32365;46.938;7.390;2023-03-25T17:55:44;95116.44;;;8.62;67.24
46638;BME280;32365;46.938;7.390;2023-03-25T17:58:11;95125.72;;;8.52;68.11
46638;BME280;32365;46.938;7.390;2023-03-25T18:00:37;95116.69;;;8.42;68.83
46638;BME280;32365;46.938;7.390;2023-03-25T18:03:09;95121.94;;;8.36;68.89
46638;BME280;32365;46.938;7.390;2023-03-25T18:05:35;95123.34;;;8.50;68.72
46638;BME280;32365;46.938;7.390;2023-03-25T18:08:02;95123.16;;;8.52;68.58
46638;BME280;32365;46.938;7.390;2023-03-25T18:10:31;95119.75;;;8.51;68.44
46638;BME280;32365;46.938;7.390;2023-03-25T18:12:59;95112.47;;;8.48;68.68
46638;BME280;32365;46.938;7.390;2023-03-25T18:15:26;95119.47;;;8.59;68.76
46638;BME280;32365;46.938;7.390;2023-03-25T18:17:52;95122.69;;;8.55;68.62
46638;BME280;32365;46.938;7.390;2023-03-25T18:20:24;95129.00;;;8.59;68.46
46638;BME280;32365;46.938;7.390;2023-03-25T18:22:52;95128.41;;;8.57;68.63
46638;BME280;32365;46.938;7.390;2023-03-25T18:25:18;95129.78;;;8.59;69.03
46638;BME280;32365;46.938;7.390;2023-03-25T18:27:49;95136.81;;;8.52;69.46
46638;BME280;32365;46.938;7.390;2023-03-25T18:30:19;95132.91;;;8.50;69.47
46638;BME280;32365;46.938;7.390;2023-03-25T18:32:46;95129.50;;;8.49;69.07
46638;BME280;32365;46.938;7.390;2023-03-25T18:35:12;95135.59;;;8.55;69.89
46638;BME280;32365;46.938;7.390;2023-03-25T18:37:39;95154.94;;;8.64;69.06
46638;BME280;32365;46.938;7.390;2023-03-25T18:40:14;95143.69;;;8.58;69.67
46638;BME280;32365;46.938;7.390;2023-03-25T18:42:41;95150.72;;;8.51;69.88
46638;BME280;32365;46.938;7.390;2023-03-25T18:45:10;95151.53;;;8.63;69.00
46638;BME280;32365;46.938;7.390;2023-03-25T18:47:37;95149.97;;;8.62;69.53
46638;BME280;32365;46.938;7.390;2023-03-25T18:50:15;95153.56;;;8.61;69.62
46638;BME280;32365;46.938;7.390;2023-03-25T18:52:42;95147.13;;;8.52;70.12
46638;BME280;32365;46.938;7.390;2023-03-25T18:55:10;95144.84;;;8.44;70.51
46638;BME280;32365;46.938;7.390;2023-03-25T18:57:37;95152.53;;;8.51;70.23
46638;BME280;32365;46.938;7.390;2023-03-25T19:00:17;95151.44;;;8.58;70.62
46638;BME280;32365;46.938;7.390;2023-03-25T19:02:45;95154.31;;;8.50;70.89
46638;BME280;32365;46.938;7.390;2023-03-25T19:05:12;95153.94;;;8.46;70.39
46638;BME280;32365;46.938;7.390;2023-03-25T19:07:39;95154.16;;;8.45;71.24
46638;BME280;32365;46.938;7.390;2023-03-25T19:10:09;95159.84;;;8.35;71.40
46638;BME280;32365;46.938;7.390;2023-03-25T19:12:37;95155.75;;;8.27;71.70
46638;BME280;32365;46.938;7.390;2023-03-25T19:15:04;95152.19;;;8.28;72.14
46638;BME280;32365;46.938;7.390;2023-03-25T19:17:32;95156.91;;;8.31;72.19
46638;BME280;32365;46.938;7.390;2023-03-25T19:19:59;95154.66;;;8.23;72.72
46638;BME280;32365;46.938;7.390;2023-03-25T19:22:25;95149.50;;;8.23;72.58
46638;BME280;32365;46.938;7.390;2023-03-25T19:24:53;95149.13;;;8.20;73.14
46638;BME280;32365;46.938;7.390;2023-03-25T19:27:20;95145.63;;;8.14;73.59
46638;BME280;32365;46.938;7.390;2023-03-25T19:29:46;95146.75;;;8.18;73.99
46638;BME280;32365;46.938;7.390;2023-03-25T19:32:14;95149.06;;;8.08;73.67
46638;BME280;32365;46.938;7.390;2023-03-25T19:34:42;95146.69;;;8.06;73.27
46638;BME280;32365;46.938;7.390;2023-03-25T19:37:12;95146.88;;;7.93;74.40
46638;BME280;32365;46.938;7.390;2023-03-25T19:39:40;95149.88;;;7.90;75.27
46638;BME280;32365;46.938;7.390;2023-03-25T19:42:06;95151.50;;;8.02;75.11
46638;BME280;32365;46.938;7.390;2023-03-25T19:44:34;95144.25;;;8.11;73.62
46638;BME280;32365;46.938;7.390;2023-03-25T19:47:00;95138.19;;;8.06;73.44
46638;BME280;32365;46.938;7.390;2023-03-25T19:49:27;95132.75;;;7.95;74.32
46638;BME280;32365;46.938;7.390;2023-03-25T19:51:54;95128.91;;;7.86;74.87
46638;BME280;32365;46.938;7.390;2023-03-25T19:54:21;95129.69;;;7.86;75.62
46638;BME280;32365;46.938;7.390;2023-03-25T19:56:47;95113.00;;;7.89;75.00
46638;BME280;32365;46.938;7.390;2023-03-25T19:59:14;95121.03;;;7.81;75.14
46638;BME280;32365;46.938;7.390;2023-03-25T20:01:41;95128.13;;;7.67;76.49